Time;durP1;ratioP1;P1;durP2;ratioP2;P2;SDS_P1;SDS_P2;PMS_P1;PMS_P2;Temp;Humidity;BMP_temperature;BMP_pressure;BME280_temperature;BME280_humidity;BME280_pressure;Samples;Min_cycle;Max_cycle;Signal;HPM_P1;HPM_P2
2022/05/25 00:00:23;;;;;;;0.70;0.20;;;16.40;53.20;;;;;;5096695;28;20502;-54
2022/05/25 00:02:50;;;;;;;0.53;0.20;;;16.30;99.90;;;;;;5096616;28;20547;-49
2022/05/25 00:05:18;;;;;;;0.30;0.10;;;16.20;99.90;;;;;;5095620;28;20445;-50
2022/05/25 00:07:45;;;;;;;0.40;0.20;;;16.30;99.90;;;;;;5094193;28;20457;-52
2022/05/25 00:10:13;;;;;;;0.30;0.10;;;16.30;99.90;;;;;;5093405;28;20511;-50
2022/05/25 00:12:41;;;;;;;0.30;0.20;;;16.30;99.90;;;;;;5093426;28;20495;-54
2022/05/25 00:15:12;;;;;;;0.47;0.23;;;16.30;99.90;;;;;;5093550;28;20544;-55
2022/05/25 00:17:39;;;;;;;0.40;0.20;;;16.30;99.90;;;;;;5093832;28;20785;-56
2022/05/25 00:20:07;;;;;;;0.30;0.10;;;16.20;99.90;;;;;;5094376;28;20968;-55
2022/05/25 00:22:42;;;;;;;0.30;0.13;;;16.10;99.90;;;;;;5095123;28;20832;-53
2022/05/25 00:25:11;;;;;;;0.40;0.17;;;16.20;99.90;;;;;;5096325;28;20532;-53
2022/05/25 00:27:38;;;;;;;0.37;0.20;;;16.40;99.90;;;;;;5096605;28;20544;-54
2022/05/25 00:30:05;;;;;;;0.30;0.20;;;16.40;99.90;;;;;;5096347;28;20490;-55
2022/05/25 00:32:34;;;;;;;0.40;0.20;;;16.30;99.90;;;;;;5094777;28;20547;-55
2022/05/25 00:35:01;;;;;;;0.30;0.20;;;16.30;99.90;;;;;;5095471;28;20537;-55
2022/05/25 00:37:28;;;;;;;0.50;0.20;;;16.20;1.00;;;;;;5095066;28;20544;-53
2022/05/25 00:39:55;;;;;;;0.40;0.20;;;16.20;99.90;;;;;;5095520;28;20495;-54
2022/05/25 00:42:22;;;;;;;0.47;0.20;;;16.30;1.00;;;;;;5094877;28;20544;-50
2022/05/25 00:44:49;;;;;;;0.30;0.10;;;16.30;1.00;;;;;;5095263;28;20596;-52
2022/05/25 00:47:21;;;;;;;0.30;0.10;;;16.50;1.00;;;;;;5095308;28;20544;-55
2022/05/25 00:49:50;;;;;;;0.30;0.13;;;16.60;1.00;;;;;;5095740;28;20520;-50
2022/05/25 00:52:17;;;;;;;8.50;0.20;;;16.60;99.90;;;;;;5092948;28;20464;-54
2022/05/25 00:54:48;;;;;;;0.37;0.20;;;16.60;99.90;;;;;;5093182;28;20581;-53
2022/05/25 00:57:18;;;;;;;0.40;0.20;;;16.60;99.90;;;;;;5093685;28;20547;-53
2022/05/25 00:59:54;;;;;;;0.30;0.20;;;16.70;99.90;;;;;;5094189;28;20768;-54
2022/05/25 01:02:21;;;;;;;0.90;0.20;;;16.70;99.90;;;;;;5093809;28;20460;-53
2022/05/25 01:04:49;;;;;;;0.30;0.13;;;16.60;99.90;;;;;;5095296;28;20963;-51
2022/05/25 01:07:33;;;;;;;0.30;0.20;;;16.60;99.90;;;;;;5095642;28;20550;-54
2022/05/25 01:10:15;;;;;;;0.50;0.20;;;16.50;99.90;;;;;;5095296;28;20456;-50
2022/05/25 01:12:52;;;;;;;0.60;0.20;;;16.40;18.00;;;;;;5095393;28;20948;-53
2022/05/25 01:15:24;;;;;;;0.30;0.10;;;16.40;60.30;;;;;;5097145;28;20473;-53
2022/05/25 01:18:08;;;;;;;0.40;0.20;;;16.30;11.90;;;;;;5099836;28;20445;-53
2022/05/25 01:20:41;;;;;;;0.30;0.20;;;16.10;1.00;;;;;;5099615;28;20891;-52
2022/05/25 01:23:48;;;;;;;0.30;0.10;;;16.10;14.80;;;;;;5099205;28;20547;-52
2022/05/25 01:26:48;;;;;;;0.30;0.10;;;16.00;1.00;;;;;;5099653;28;20931;-55
2022/05/25 01:29:52;;;;;;;0.30;0.10;;;16.10;5.50;;;;;;5099805;28;20519;-53
2022/05/25 01:32:27;;;;;;;0.30;0.10;;;16.10;1.00;;;;;;5099980;28;20473;-52
2022/05/25 01:34:59;;;;;;;0.37;0.20;;;16.20;1.00;;;;;;5099815;28;20739;-52
2022/05/25 01:37:34;;;;;;;0.30;0.20;;;16.40;1.00;;;;;;5099544;28;20544;-54
2022/05/25 01:40:07;;;;;;;0.30;0.10;;;16.50;1.00;;;;;;5099674;28;20591;-53
2022/05/25 01:42:40;;;;;;;0.20;0.10;;;16.50;1.00;;;;;;5099251;28;20902;-53
2022/05/25 01:45:10;;;;;;;0.30;0.20;;;16.60;1.00;;;;;;5098150;28;20502;-52
2022/05/25 01:47:41;;;;;;;0.30;0.13;;;16.50;1.00;;;;;;5098073;28;20497;-55
2022/05/25 01:50:11;;;;;;;0.30;0.10;;;16.40;1.00;;;;;;5099218;28;20441;-53
2022/05/25 01:52:44;;;;;;;0.30;0.10;;;16.30;1.00;;;;;;5099117;28;20540;-51
2022/05/25 01:55:15;;;;;;;0.30;0.20;;;16.20;1.00;;;;;;5099508;28;20437;-53
2022/05/25 01:57:47;;;;;;;0.30;0.20;;;16.20;99.90;;;;;;5099517;28;20548;-53
2022/05/25 02:00:29;;;;;;;0.47;0.27;;;16.10;1.00;;;;;;5099027;28;20567;-54
2022/05/25 02:05:49;;;;;;;0.30;0.20;;;15.90;99.90;;;;;;5098535;28;20417;-54
2022/05/25 02:08:25;;;;;;;0.70;0.20;;;16.00;99.90;;;;;;5098454;28;20449;-55
2022/05/25 02:11:02;;;;;;;0.30;0.20;;;16.00;24.20;;;;;;5098769;28;20481;-54
2022/05/25 02:13:58;;;;;;;0.30;0.20;;;15.90;1.00;;;;;;5096967;28;20502;-52
2022/05/25 02:16:36;;;;;;;0.40;0.20;;;15.80;1.00;;;;;;5097407;28;20935;-54
2022/05/25 02:19:10;;;;;;;0.40;0.20;;;15.60;1.00;;;;;;5097263;28;20583;-55
2022/05/25 02:21:45;;;;;;;0.30;0.13;;;15.40;1.00;;;;;;5097038;28;20499;-49
2022/05/25 02:24:21;;;;;;;0.40;0.20;;;15.50;20.60;;;;;;5096889;28;20467;-53
2022/05/25 02:26:51;;;;;;;0.30;0.10;;;15.50;1.00;;;;;;5096826;28;20539;-53
2022/05/25 02:29:22;;;;;;;0.40;0.10;;;15.60;21.00;;;;;;5097327;28;20532;-52
2022/05/25 02:31:55;;;;;;;0.40;0.20;;;15.70;1.00;;;;;;5098465;28;20797;-54
2022/05/25 02:34:26;;;;;;;0.30;0.13;;;15.90;1.00;;;;;;5098342;28;20456;-54
2022/05/25 02:36:55;;;;;;;1.53;0.10;;;16.00;1.00;;;;;;5097931;28;20441;-53
2022/05/25 02:39:22;;;;;;;1.70;0.20;;;16.10;1.00;;;;;;5098855;28;21101;-50
2022/05/25 02:41:51;;;;;;;0.40;0.10;;;16.10;1.00;;;;;;5098165;28;20450;-54
2022/05/25 02:44:19;;;;;;;0.30;0.20;;;16.10;1.00;;;;;;5098189;28;20456;-48
2022/05/25 02:46:46;;;;;;;0.33;0.20;;;16.10;1.00;;;;;;5097151;28;20454;-49
2022/05/25 02:49:15;;;;;;;0.60;0.20;;;16.10;1.00;;;;;;5097782;28;20528;-53
2022/05/25 02:51:42;;;;;;;0.37;0.20;;;16.10;1.00;;;;;;5098318;28;20809;-51
2022/05/25 02:54:09;;;;;;;0.37;0.10;;;16.00;1.00;;;;;;5097943;28;20576;-54
2022/05/25 02:56:37;;;;;;;0.40;0.20;;;16.10;1.00;;;;;;5098118;28;20445;-51
2022/05/25 02:59:04;;;;;;;0.40;0.20;;;16.00;1.00;;;;;;5098457;28;20576;-53
2022/05/25 03:01:32;;;;;;;0.33;0.13;;;15.90;1.00;;;;;;5098058;28;20464;-53
2022/05/25 03:03:58;;;;;;;0.43;0.13;;;16.00;1.00;;;;;;5097685;28;20456;-51
2022/05/25 03:06:27;;;;;;;0.40;0.20;;;16.00;1.00;;;;;;5097872;28;20437;-54
2022/05/25 03:08:53;;;;;;;0.47;0.10;;;16.00;1.00;;;;;;5097913;28;20492;-55
2022/05/25 03:11:20;;;;;;;0.63;0.17;;;16.00;1.00;;;;;;5097556;28;20528;-53
2022/05/25 03:13:48;;;;;;;0.40;0.20;;;16.00;1.00;;;;;;5097826;28;20547;-52
2022/05/25 03:16:17;;;;;;;0.40;0.10;;;16.00;1.00;;;;;;5096687;28;20537;-53
2022/05/25 03:18:44;;;;;;;0.40;0.20;;;15.90;1.00;;;;;;5096549;28;20579;-53
2022/05/25 03:21:11;;;;;;;0.30;0.20;;;16.00;1.00;;;;;;5094437;28;20971;-55
2022/05/25 03:23:39;;;;;;;0.50;0.20;;;15.90;1.00;;;;;;5093530;28;20551;-53
2022/05/25 03:26:07;;;;;;;0.30;0.20;;;15.80;1.00;;;;;;5112461;27;20790;-50
2022/05/25 03:28:34;;;;;;;0.30;0.10;;;15.80;1.00;;;;;;5114567;28;20551;-55
2022/05/25 03:31:01;;;;;;;0.37;0.20;;;15.80;1.00;;;;;;5115170;28;20512;-52
2022/05/25 03:33:28;;;;;;;0.30;0.20;;;15.80;1.00;;;;;;5116949;28;20453;-51
2022/05/25 03:35:55;;;;;;;0.57;0.30;;;15.90;1.00;;;;;;5117633;28;20512;-54
2022/05/25 03:38:22;;;;;;;0.50;0.10;;;15.90;1.00;;;;;;5116788;28;20941;-54
2022/05/25 03:40:50;;;;;;;0.30;0.20;;;15.90;1.00;;;;;;5116294;28;20867;-54
2022/05/25 03:43:19;;;;;;;0.40;0.13;;;16.00;1.00;;;;;;5116128;28;20547;-54
2022/05/25 03:45:46;;;;;;;0.50;0.20;;;15.80;1.00;;;;;;5114725;28;20535;-52
2022/05/25 03:48:13;;;;;;;0.30;0.10;;;15.70;1.00;;;;;;5116386;28;20453;-55
2022/05/25 03:50:41;;;;;;;0.40;0.20;;;15.60;1.00;;;;;;5115331;28;20440;-55
2022/05/25 03:53:10;;;;;;;0.30;0.20;;;15.30;1.00;;;;;;5116324;28;20566;-51
2022/05/25 03:55:37;;;;;;;0.40;0.20;;;15.10;1.00;;;;;;5117799;28;20444;-51
2022/05/25 03:58:05;;;;;;;0.60;0.17;;;14.90;1.00;;;;;;5117202;28;20472;-52
2022/05/25 04:00:33;;;;;;;0.50;0.30;;;15.00;1.00;;;;;;5116699;28;20571;-54
2022/05/25 04:03:02;;;;;;;0.40;0.20;;;14.90;1.00;;;;;;5117343;28;20449;-54
2022/05/25 04:05:29;;;;;;;0.30;0.20;;;14.90;99.90;;;;;;5117702;28;20468;-52
2022/05/25 04:07:58;;;;;;;0.83;0.10;;;15.00;18.50;;;;;;5117404;28;20542;-50
2022/05/25 04:10:26;;;;;;;0.33;0.10;;;14.90;1.00;;;;;;5116416;28;20444;-54
2022/05/25 04:12:53;;;;;;;0.40;0.20;;;14.90;7.60;;;;;;5116145;28;20456;-54
2022/05/25 04:15:23;;;;;;;0.47;0.20;;;15.10;99.90;;;;;;5116562;28;20959;-52
2022/05/25 04:17:51;;;;;;;1.03;0.20;;;15.10;86.20;;;;;;5116093;28;20567;-54
2022/05/25 04:20:19;;;;;;;0.93;0.20;;;15.10;1.00;;;;;;5115277;28;20527;-50
2022/05/25 04:22:46;;;;;;;0.30;0.20;;;15.10;5.40;;;;;;5115076;28;20827;-53
2022/05/25 04:25:16;;;;;;;2.30;0.20;;;15.10;15.60;;;;;;5115485;28;20512;-55
2022/05/25 04:27:44;;;;;;;0.40;0.20;;;15.20;47.90;;;;;;5115251;28;20825;-52
2022/05/25 04:30:15;;;;;;;2.00;0.20;;;15.30;80.80;;;;;;5115974;28;20441;-55
2022/05/25 04:32:44;;;;;;;0.50;0.20;;;15.30;1.00;;;;;;5116600;28;20510;-51
2022/05/25 04:35:12;;;;;;;0.57;0.30;;;15.30;7.20;;;;;;5116062;28;20935;-51
2022/05/25 04:37:52;;;;;;;0.30;0.20;;;15.30;1.00;;;;;;5116680;28;20551;-50
2022/05/25 04:40:23;;;;;;;0.40;0.20;;;15.30;1.00;;;;;;5116401;28;20484;-49
2022/05/25 04:42:50;;;;;;;0.30;0.20;;;15.40;91.70;;;;;;5116758;28;20547;-53
2022/05/25 04:45:19;;;;;;;0.40;0.20;;;15.50;72.70;;;;;;5116041;28;20445;-51
2022/05/25 04:47:47;;;;;;;0.30;0.10;;;15.60;42.20;;;;;;5115664;28;20448;-51
2022/05/25 04:50:16;;;;;;;0.40;0.20;;;15.60;20.90;;;;;;5114979;28;20548;-53
2022/05/25 04:52:43;;;;;;;0.50;0.30;;;15.50;1.00;;;;;;5115566;28;20551;-47
2022/05/25 04:57:19;;;;;;;0.40;0.23;;;15.30;1.00;;;;;;5116422;28;20483;-53
2022/05/25 04:57:58;;;;;;;1.33;0.20;;;15.20;99.90;;;;;;5116022;28;20452;-50
2022/05/25 05:00:25;;;;;;;0.50;0.27;;;15.20;47.90;;;;;;5115959;28;20545;-48
2022/05/25 05:02:55;;;;;;;0.40;0.20;;;15.30;99.90;;;;;;5115315;28;20823;-51
2022/05/25 05:05:22;;;;;;;0.40;0.20;;;15.40;93.80;;;;;;5114543;28;20783;-51
2022/05/25 05:07:49;;;;;;;0.40;0.20;;;15.50;43.50;;;;;;5114982;28;20547;-53
2022/05/25 05:10:17;;;;;;;0.37;0.20;;;15.50;12.50;;;;;;5114618;28;20765;-49
2022/05/25 05:12:44;;;;;;;0.40;0.20;;;15.50;99.90;;;;;;5113974;28;20548;-53
2022/05/25 05:15:11;;;;;;;0.30;0.10;;;15.50;99.90;;;;;;5114295;28;20543;-54
2022/05/25 05:17:38;;;;;;;0.53;0.20;;;15.70;80.10;;;;;;5114836;28;20448;-53
2022/05/25 05:20:08;;;;;;;0.33;0.20;;;15.60;1.00;;;;;;5114985;28;21045;-52
2022/05/25 05:22:35;;;;;;;1.03;0.20;;;15.60;55.90;;;;;;5114504;28;20814;-52
2022/05/25 05:25:02;;;;;;;0.40;0.20;;;15.70;21.40;;;;;;5105237;28;20548;-53
2022/05/25 05:27:29;;;;;;;0.40;0.20;;;15.70;1.00;;;;;;5093744;28;20973;-51
2022/05/25 05:29:59;;;;;;;0.40;0.20;;;15.60;1.00;;;;;;5092776;28;20517;-54
2022/05/25 05:32:27;;;;;;;0.50;0.27;;;15.50;10.10;;;;;;5091038;28;20445;-52
2022/05/25 05:34:54;;;;;;;0.80;0.20;;;15.60;47.10;;;;;;5093073;28;20821;-53
2022/05/25 05:37:27;;;;;;;0.40;0.20;;;15.60;36.90;;;;;;5092885;28;20551;-51
2022/05/25 05:39:57;;;;;;;0.60;0.20;;;15.60;1.00;;;;;;5093003;28;20516;-54
2022/05/25 05:42:25;;;;;;;0.40;0.20;;;15.60;1.00;;;;;;5092963;28;20759;-52
2022/05/25 05:44:59;;;;;;;0.43;0.20;;;15.70;14.00;;;;;;5091686;28;20735;-50
2022/05/25 05:47:31;;;;;;;0.40;0.20;;;15.60;1.00;;;;;;5093431;28;20531;-53
2022/05/25 05:49:59;;;;;;;1.43;0.20;;;15.50;1.00;;;;;;5090781;28;20445;-56
2022/05/25 05:52:28;;;;;;;0.40;0.20;;;15.40;8.00;;;;;;5091165;28;20547;-53
2022/05/25 05:54:55;;;;;;;0.50;0.23;;;15.50;13.80;;;;;;5090469;28;20469;-51
2022/05/25 05:57:22;;;;;;;0.40;0.20;;;15.60;9.30;;;;;;5092591;28;20540;-55
2022/05/25 05:59:49;;;;;;;0.40;0.20;;;15.70;1.60;;;;;;5118865;28;20471;-52
2022/05/25 06:02:16;;;;;;;0.47;0.20;;;15.70;1.00;;;;;;5123169;27;20546;-53
2022/05/25 06:04:42;;;;;;;0.50;0.20;;;15.70;1.00;;;;;;5113136;27;20534;-54
2022/05/25 06:07:09;;;;;;;0.40;0.20;;;15.90;1.00;;;;;;5125340;27;20539;-50
2022/05/25 06:09:37;;;;;;;0.40;0.30;;;16.00;1.00;;;;;;5118305;28;20576;-53
2022/05/25 06:12:05;;;;;;;0.37;0.20;;;16.30;1.00;;;;;;5117084;28;20812;-53
2022/05/25 06:14:32;;;;;;;0.70;0.20;;;16.40;1.00;;;;;;5115414;27;20834;-52
2022/05/25 06:19:43;;;;;;;1.07;0.20;;;16.60;1.00;;;;;;5116724;27;20463;-54
2022/05/25 06:22:12;;;;;;;0.50;0.20;;;16.60;1.00;;;;;;5120978;27;20457;-55
2022/05/25 06:24:43;;;;;;;0.30;0.20;;;16.50;1.00;;;;;;5113828;28;20445;-53
2022/05/25 06:27:11;;;;;;;0.40;0.20;;;16.70;1.00;;;;;;5118379;27;20928;-54
2022/05/25 06:29:39;;;;;;;0.50;0.20;;;16.80;1.00;;;;;;5107773;28;20475;-51
2022/05/25 06:32:08;;;;;;;0.40;0.30;;;16.80;1.00;;;;;;5107470;27;20452;-54
2022/05/25 06:34:36;;;;;;;0.30;0.20;;;16.90;1.00;;;;;;5108141;27;20907;-54
2022/05/25 06:37:03;;;;;;;0.30;0.10;;;17.10;1.00;;;;;;5115319;28;20556;-49
2022/05/25 06:39:35;;;;;;;0.30;0.20;;;17.00;1.00;;;;;;5116247;27;20464;-54
2022/05/25 06:42:04;;;;;;;0.57;0.30;;;17.10;1.00;;;;;;5112633;28;20464;-55
2022/05/25 06:44:31;;;;;;;0.80;0.20;;;17.10;1.00;;;;;;5117672;27;20499;-53
2022/05/25 06:46:59;;;;;;;2.30;0.20;;;16.90;1.00;;;;;;5120812;27;20489;-54
2022/05/25 06:49:26;;;;;;;2.83;0.20;;;17.10;1.00;;;;;;5096530;28;20477;-49
2022/05/25 06:51:53;;;;;;;0.50;0.20;;;17.40;1.00;;;;;;5108274;28;20856;-53
2022/05/25 06:54:21;;;;;;;0.30;0.20;;;17.50;1.00;;;;;;5123960;27;20578;-55
2022/05/25 06:56:47;;;;;;;1.00;0.20;;;17.30;1.00;;;;;;5114810;28;20460;-53
2022/05/25 06:59:16;;;;;;;1.47;0.30;;;17.00;1.00;;;;;;5113955;28;20547;-53
2022/05/25 07:01:43;;;;;;;0.40;0.20;;;17.00;1.00;;;;;;5095567;28;20570;-52
2022/05/25 07:04:11;;;;;;;0.47;0.20;;;16.70;1.00;;;;;;5096229;28;20453;-51
2022/05/25 07:06:39;;;;;;;0.40;0.20;;;16.60;1.00;;;;;;5103387;27;20491;-46
2022/05/25 07:09:08;;;;;;;0.37;0.20;;;16.60;1.00;;;;;;5120302;27;20871;-51
2022/05/25 07:11:35;;;;;;;0.40;0.20;;;16.70;1.00;;;;;;5116072;27;20892;-52
2022/05/25 07:14:03;;;;;;;1.17;0.20;;;16.80;1.00;;;;;;5119562;27;20823;-51
2022/05/25 07:16:32;;;;;;;0.50;0.30;;;16.70;1.00;;;;;;5120023;27;20440;-54
2022/05/25 07:18:59;;;;;;;0.53;0.30;;;16.70;1.00;;;;;;5118202;27;20449;-50
2022/05/25 07:21:28;;;;;;;3.23;0.20;;;16.80;1.00;;;;;;5124097;27;20506;-52
2022/05/25 07:23:56;;;;;;;0.30;0.20;;;17.00;1.00;;;;;;5111131;27;20448;-54
2022/05/25 07:26:25;;;;;;;0.43;0.30;;;17.20;1.00;;;;;;5118736;27;20472;-51
2022/05/25 07:28:53;;;;;;;1.13;0.20;;;17.30;1.00;;;;;;5109195;27;20455;-49
2022/05/25 07:31:23;;;;;;;0.40;0.23;;;17.50;1.00;;;;;;5109989;28;20524;-55
2022/05/25 07:33:58;;;;;;;0.70;0.27;;;17.60;1.00;;;;;;5103249;28;20760;-54
2022/05/25 07:36:26;;;;;;;3.20;0.87;;;17.60;1.00;;;;;;5105716;28;20492;-52
2022/05/25 07:38:56;;;;;;;0.60;0.30;;;17.60;1.00;;;;;;5112431;27;20463;-52
2022/05/25 07:41:23;;;;;;;0.40;0.20;;;17.60;1.00;;;;;;5106012;27;20474;-53
2022/05/25 07:43:57;;;;;;;0.60;0.30;;;17.50;1.00;;;;;;5116704;27;20535;-53
2022/05/25 07:46:25;;;;;;;0.60;0.30;;;17.50;1.00;;;;;;5114173;27;20894;-52
2022/05/25 07:48:53;;;;;;;1.20;0.20;;;17.80;1.00;;;;;;5125953;27;20447;-52
2022/05/25 07:51:20;;;;;;;0.70;0.30;;;17.70;1.00;;;;;;5116716;27;20707;-54
2022/05/25 07:53:59;;;;;;;0.40;0.20;;;17.90;1.00;;;;;;5122607;27;20575;-54
2022/05/25 07:56:29;;;;;;;0.80;0.30;;;18.00;1.00;;;;;;5113078;28;20447;-53
2022/05/25 07:58:56;;;;;;;1.00;0.20;;;18.10;1.00;;;;;;5108992;27;20451;-53
2022/05/25 08:06:54;;;;;;;0.40;0.20;;;18.30;1.00;;;;;;5113665;27;20572;-53
2022/05/25 08:09:21;;;;;;;1.03;0.27;;;18.50;1.00;;;;;;5118413;27;20533;-49
2022/05/25 08:11:51;;;;;;;0.57;0.30;;;18.70;1.00;;;;;;5111544;27;21048;-52
2022/05/25 08:14:18;;;;;;;1.20;0.20;;;18.30;1.00;;;;;;5100052;27;20763;-53
2022/05/25 08:16:45;;;;;;;0.30;0.20;;;18.30;1.00;;;;;;5112033;27;20442;-50
2022/05/25 08:19:14;;;;;;;1.73;0.30;;;18.30;1.00;;;;;;5121800;27;20530;-51
2022/05/25 08:21:41;;;;;;;0.40;0.20;;;18.60;1.00;;;;;;5121231;27;21034;-53
2022/05/25 08:24:08;;;;;;;0.70;0.20;;;18.80;1.00;;;;;;5112894;27;20547;-50
2022/05/25 08:26:35;;;;;;;0.87;0.30;;;18.90;1.00;;;;;;5122574;27;20468;-53
2022/05/25 08:29:02;;;;;;;0.40;0.20;;;19.00;1.00;;;;;;5115208;28;20478;-51
2022/05/25 08:31:31;;;;;;;0.60;0.27;;;19.10;1.00;;;;;;5120879;27;20526;-53
2022/05/25 08:33:58;;;;;;;0.40;0.20;;;19.30;1.00;;;;;;5104262;27;20457;-49
2022/05/25 08:36:27;;;;;;;0.33;0.20;;;19.40;1.00;;;;;;5128921;27;20534;-51
2022/05/25 08:38:55;;;;;;;0.37;0.20;;;19.40;1.00;;;;;;5115075;27;20454;-52
2022/05/25 08:41:28;;;;;;;0.40;0.20;;;19.40;1.00;;;;;;5115030;27;20791;-51
2022/05/25 08:43:56;;;;;;;0.30;0.20;;;19.40;1.00;;;;;;5130419;27;20562;-53
2022/05/25 08:46:24;;;;;;;0.30;0.20;;;19.70;1.00;;;;;;5132073;27;20500;-53
2022/05/25 08:48:52;;;;;;;1.00;0.30;;;19.90;1.00;;;;;;5121973;27;20477;-48
2022/05/25 08:51:22;;;;;;;0.47;0.20;;;19.70;1.00;;;;;;5117241;27;20475;-50
2022/05/25 08:53:50;;;;;;;0.53;0.50;;;19.50;1.00;;;;;;5134322;27;20558;-52
2022/05/25 08:56:23;;;;;;;0.40;0.20;;;19.50;1.00;;;;;;5105427;27;20449;-55
2022/05/25 08:58:55;;;;;;;0.40;0.20;;;19.50;1.00;;;;;;5097995;27;20560;-54
2022/05/25 09:01:29;;;;;;;0.53;0.20;;;19.00;1.00;;;;;;5093154;28;20822;-55
2022/05/25 09:04:03;;;;;;;0.40;0.20;;;19.20;1.00;;;;;;5097275;28;20916;-53
2022/05/25 09:06:39;;;;;;;0.50;0.30;;;19.50;1.00;;;;;;5120767;27;20450;-52
2022/05/25 09:09:16;;;;;;;0.40;0.20;;;19.70;1.00;;;;;;5124031;27;20510;-53
2022/05/25 09:11:48;;;;;;;0.30;0.20;;;19.90;1.00;;;;;;5112288;28;20745;-55
2022/05/25 09:14:20;;;;;;;0.50;0.20;;;19.50;1.00;;;;;;5108457;28;20498;-54
2022/05/25 09:16:50;;;;;;;0.40;0.30;;;19.60;1.00;;;;;;5113823;28;20527;-52
2022/05/25 09:19:20;;;;;;;0.33;0.20;;;19.90;1.00;;;;;;5129192;28;20493;-52
2022/05/25 09:21:52;;;;;;;0.93;0.20;;;20.00;1.00;;;;;;5135583;28;20555;-53
2022/05/25 09:24:22;;;;;;;0.40;0.20;;;20.50;1.00;;;;;;5117562;28;20515;-55
2022/05/25 09:26:50;;;;;;;0.40;0.20;;;20.30;1.00;;;;;;5127852;28;20440;-52
2022/05/25 09:29:18;;;;;;;0.40;0.20;;;20.20;1.00;;;;;;5115865;28;20678;-54
2022/05/25 09:31:51;;;;;;;0.60;0.30;;;20.40;1.00;;;;;;5118712;28;20535;-54
2022/05/25 09:34:29;;;;;;;0.80;0.30;;;20.60;1.00;;;;;;5127572;28;20444;-50
2022/05/25 09:37:06;;;;;;;1.87;0.20;;;20.80;1.00;;;;;;5134495;27;20450;-54
2022/05/25 09:39:39;;;;;;;0.30;0.20;;;20.60;1.00;;;;;;5131349;27;20901;-51
2022/05/25 09:42:07;;;;;;;0.30;0.20;;;20.40;1.00;;;;;;5118717;27;20504;-48
2022/05/25 09:44:34;;;;;;;0.40;0.20;;;20.50;1.00;;;;;;5111372;27;20441;-49
2022/05/25 09:47:03;;;;;;;0.40;0.20;;;20.40;1.00;;;;;;5118085;27;20619;-49
2022/05/25 09:49:38;;;;;;;0.40;0.20;;;20.30;1.00;;;;;;5120026;27;20480;-52
2022/05/25 09:52:11;;;;;;;0.33;0.20;;;19.90;1.00;;;;;;5116655;27;20452;-54
2022/05/25 09:54:46;;;;;;;0.77;0.20;;;20.10;1.00;;;;;;5114991;28;20579;-54
2022/05/25 09:57:22;;;;;;;0.70;0.30;;;20.50;1.00;;;;;;5108025;28;20747;-55
2022/05/25 09:59:55;;;;;;;0.40;0.20;;;20.80;1.00;;;;;;5116839;28;20241;-55
2022/05/25 10:02:27;;;;;;;0.50;0.20;;;20.70;1.00;;;;;;5103138;27;20484;-54
2022/05/25 10:04:55;;;;;;;0.40;0.20;;;20.20;1.00;;;;;;5117980;27;20795;-55
2022/05/25 10:07:30;;;;;;;0.40;0.20;;;19.60;1.00;;;;;;5116397;28;20563;-51
2022/05/25 10:10:01;;;;;;;0.33;0.20;;;19.30;1.00;;;;;;5117114;27;20528;-51
2022/05/25 10:12:32;;;;;;;0.50;0.20;;;19.80;1.00;;;;;;5112310;28;20449;-55
2022/05/25 10:15:03;;;;;;;0.40;0.20;;;20.20;1.00;;;;;;5121567;27;20813;-56
2022/05/25 10:17:34;;;;;;;0.30;0.20;;;20.60;1.00;;;;;;5114890;28;20561;-55
2022/05/25 10:20:06;;;;;;;0.30;0.20;;;21.20;1.00;;;;;;5112642;27;20531;-53
2022/05/25 10:22:38;;;;;;;0.70;0.30;;;21.40;1.00;;;;;;5115414;28;20942;-55
2022/05/25 10:25:10;;;;;;;0.30;0.20;;;21.60;1.00;;;;;;5101497;27;20533;-52
2022/05/25 10:27:40;;;;;;;0.53;0.20;;;22.10;1.00;;;;;;5095799;27;20548;-52
2022/05/25 10:38:43;;;;;;;0.50;0.20;;;21.80;1.00;;;;;;5093674;27;20896;-54
2022/05/25 10:44:05;;;;;;;0.80;0.20;;;21.40;1.00;;;;;;5105475;27;20434;-54
2022/05/25 10:46:33;;;;;;;0.50;0.20;;;21.20;1.00;;;;;;5111722;27;20498;-54
2022/05/25 10:49:07;;;;;;;0.80;0.20;;;20.50;1.00;;;;;;5108110;27;20563;-55
2022/05/25 10:51:42;;;;;;;0.30;0.20;;;20.60;1.00;;;;;;5108379;27;20459;-55
2022/05/25 10:57:08;;;;;;;0.67;0.20;;;21.20;1.00;;;;;;5113431;27;20425;-56
2022/05/25 10:59:48;;;;;;;0.65;0.30;;;21.40;1.00;;;;;;5120153;27;20750;-56
2022/05/25 11:02:25;;;;;;;0.63;0.30;;;21.80;1.00;;;;;;5111938;27;20305;-53
2022/05/25 11:05:18;;;;;;;0.67;0.20;;;21.80;1.00;;;;;;5114798;28;20527;-55
2022/05/25 11:07:45;;;;;;;0.30;0.20;;;22.00;1.00;;;;;;5103071;28;20457;-52
2022/05/25 11:10:41;;;;;;;0.40;0.20;;;22.30;1.00;;;;;;5110024;27;20531;-56
2022/05/25 11:13:48;;;;;;;0.30;0.20;;;22.30;1.00;;;;;;5111979;28;20480;-53
2022/05/25 11:16:46;;;;;;;0.30;0.17;;;22.60;1.00;;;;;;5097087;28;20510;-56
2022/05/25 11:19:38;;;;;;;0.40;0.20;;;22.10;1.00;;;;;;5113058;28;20906;-56
2022/05/25 11:22:22;;;;;;;0.30;0.20;;;21.70;1.00;;;;;;5105580;28;20583;-54
2022/05/25 11:25:17;;;;;;;0.33;0.20;;;21.70;1.00;;;;;;5102292;28;20529;-54
2022/05/25 11:27:57;;;;;;;0.57;0.30;;;21.90;1.00;;;;;;5091273;28;20499;-51
2022/05/25 11:30:36;;;;;;;0.73;0.20;;;22.00;1.00;;;;;;5104618;28;20451;-55
2022/05/25 11:33:14;;;;;;;0.40;0.20;;;22.00;1.00;;;;;;5102883;28;20539;-53
2022/05/25 11:35:51;;;;;;;0.83;0.20;;;22.00;1.00;;;;;;5114242;28;20451;-54
2022/05/25 11:38:35;;;;;;;0.30;0.20;;;21.90;1.00;;;;;;5123964;27;20944;-55
2022/05/25 11:41:24;;;;;;;0.40;0.20;;;21.40;1.00;;;;;;5113469;28;20543;-54
2022/05/25 11:44:19;;;;;;;0.40;0.20;;;21.80;1.00;;;;;;5100522;28;20545;-55
2022/05/25 11:46:51;;;;;;;0.40;0.20;;;22.80;1.00;;;;;;5113951;28;20441;-56
2022/05/25 11:49:57;;;;;;;0.97;0.20;;;23.70;1.00;;;;;;5113036;28;20450;-55
2022/05/25 11:52:46;;;;;;;0.30;0.20;;;24.10;1.00;;;;;;5082046;28;20544;-53
2022/05/25 11:55:22;;;;;;;1.90;0.33;;;24.60;1.00;;;;;;5113344;28;20477;-56
2022/05/25 11:58:01;;;;;;;0.50;0.20;;;24.40;1.00;;;;;;5115289;28;20540;-53
2022/05/25 12:00:47;;;;;;;0.40;0.20;;;23.90;1.00;;;;;;5107253;28;20445;-53
2022/05/25 12:03:45;;;;;;;0.63;0.30;;;23.60;1.00;;;;;;5106888;28;20486;-53
2022/05/25 12:06:44;;;;;;;0.30;0.20;;;23.30;1.00;;;;;;5113417;28;20437;-53
2022/05/25 12:09:22;;;;;;;0.43;0.30;;;23.50;1.00;;;;;;5111528;28;20528;-55
2022/05/25 12:11:56;;;;;;;0.50;0.20;;;23.70;1.00;;;;;;5112128;28;20877;-53
2022/05/25 12:14:36;;;;;;;0.40;0.20;;;24.30;1.00;;;;;;5109512;28;20531;-52
2022/05/25 12:17:14;;;;;;;0.50;0.30;;;24.20;1.00;;;;;;5111886;28;20527;-53
2022/05/25 12:19:44;;;;;;;0.40;0.20;;;24.50;1.00;;;;;;5113317;28;20554;-55
2022/05/25 12:22:16;;;;;;;1.27;0.20;;;23.90;1.00;;;;;;5109546;28;20572;-53
2022/05/25 12:24:46;;;;;;;0.50;0.20;;;23.90;1.00;;;;;;5107828;28;20443;-53
2022/05/25 12:27:16;;;;;;;0.50;0.20;;;24.10;1.00;;;;;;5113696;28;20484;-52
2022/05/25 12:29:47;;;;;;;0.60;0.20;;;24.30;1.00;;;;;;5106996;28;20536;-55
2022/05/25 12:32:14;;;;;;;0.40;0.20;;;24.60;1.00;;;;;;5104593;28;20508;-54
2022/05/25 12:34:46;;;;;;;0.30;0.10;;;24.90;1.00;;;;;;5094199;28;20449;-54
2022/05/25 12:37:23;;;;;;;1.63;0.30;;;24.80;1.00;;;;;;5110343;28;20532;-53
2022/05/25 12:40:01;;;;;;;0.37;0.20;;;23.90;1.00;;;;;;5113106;28;20445;-57
2022/05/25 12:42:47;;;;;;;0.53;0.20;;;24.60;1.00;;;;;;5100410;28;20862;-55
2022/05/25 12:48:31;;;;;;;0.80;0.30;;;25.20;1.00;;;;;;5091674;28;20421;-57
2022/05/25 12:51:05;;;;;;;0.40;0.23;;;25.60;1.00;;;;;;5102717;28;20472;-55
2022/05/25 12:53:35;;;;;;;0.80;0.20;;;25.80;1.00;;;;;;5105533;28;20914;-57
2022/05/25 12:56:06;;;;;;;0.50;0.20;;;26.50;1.00;;;;;;5112557;28;20437;-54
2022/05/25 12:58:42;;;;;;;0.40;0.20;;;26.50;1.00;;;;;;5111509;28;20447;-54
2022/05/25 13:01:31;;;;;;;1.43;0.20;;;26.70;1.00;;;;;;5104848;28;20543;-54
2022/05/25 13:04:40;;;;;;;0.60;0.20;;;26.10;1.00;;;;;;5109955;28;20448;-54
2022/05/25 13:07:37;;;;;;;0.40;0.20;;;24.90;1.00;;;;;;5109671;28;20552;-55
2022/05/25 13:10:19;;;;;;;0.33;0.20;;;24.60;1.00;;;;;;5107906;28;20464;-56
2022/05/25 13:12:54;;;;;;;0.60;0.40;;;24.20;1.00;;;;;;5112936;28;20462;-55
2022/05/25 13:15:41;;;;;;;0.50;0.40;;;24.40;1.00;;;;;;5096882;28;20441;-55
2022/05/25 13:18:09;;;;;;;0.83;0.40;;;25.00;1.00;;;;;;5091588;28;20540;-55
2022/05/25 13:20:59;;;;;;;1.20;0.20;;;25.50;1.00;;;;;;5091729;28;20442;-53
2022/05/25 13:24:15;;;;;;;0.70;0.20;;;26.00;1.00;;;;;;5090396;28;20481;-54
2022/05/25 13:27:02;;;;;;;0.37;0.20;;;26.40;1.00;;;;;;5009243;28;20449;-56
2022/05/25 13:29:37;;;;;;;1.23;0.20;;;26.70;1.00;;;;;;5082037;28;20473;-54
2022/05/25 13:32:11;;;;;;;0.73;0.20;;;26.70;1.00;;;;;;5091160;28;20936;-55
2022/05/25 13:34:38;;;;;;;0.30;0.20;;;26.60;1.00;;;;;;5091669;28;20796;-55
2022/05/25 13:37:11;;;;;;;0.40;0.10;;;26.60;1.00;;;;;;5091989;28;20449;-54
2022/05/25 13:39:42;;;;;;;0.57;0.20;;;26.10;1.00;;;;;;5094250;28;20746;-54
2022/05/25 13:42:13;;;;;;;0.93;0.20;;;25.30;1.00;;;;;;5092928;28;20583;-56
2022/05/25 13:44:46;;;;;;;0.63;0.20;;;25.30;1.00;;;;;;5092755;28;20543;-55
2022/05/25 13:47:20;;;;;;;0.40;0.20;;;25.80;1.00;;;;;;5113561;28;20448;-54
2022/05/25 13:49:52;;;;;;;0.67;0.20;;;26.40;1.00;;;;;;5114638;28;21069;-54